Time;durP1;ratioP1;P1;durP2;ratioP2;P2;SDS_P1;SDS_P2;PMS_P1;PMS_P2;Temp;Humidity;BMP_temperature;BMP_pressure;BME280_temperature;BME280_humidity;BME280_pressure;Samples;Min_cycle;Max_cycle;Signal;HPM_P1;HPM_P2
2023/01/01 00:01:14;;;;;;;22.48;12.50;;;12.70;99.90;;;;;;4997578;28;20526;-74
2023/01/01 00:03:40;;;;;;;16.70;9.23;;;13.10;99.90;;;;;;5012605;28;20120;-74
2023/01/01 00:06:10;;;;;;;19.17;11.32;;;13.30;99.90;;;;;;5009409;28;20120;-74
2023/01/01 00:08:36;;;;;;;21.58;12.07;;;13.50;99.90;;;;;;4996359;28;20104;-74
2023/01/01 00:11:04;;;;;;;24.60;12.13;;;13.90;99.90;;;;;;5004574;28;20112;-75
2023/01/01 00:13:29;;;;;;;20.48;11.52;;;13.10;99.90;;;;;;5032036;28;20426;-74
2023/01/01 00:15:55;;;;;;;18.50;10.05;;;13.10;99.90;;;;;;5014143;28;20046;-74
2023/01/01 00:18:21;;;;;;;14.07;7.85;;;13.50;99.90;;;;;;5030586;28;20040;-74
2023/01/01 00:20:46;;;;;;;18.42;10.10;;;13.60;99.90;;;;;;4998130;28;20038;-74
2023/01/01 00:23:12;;;;;;;17.02;10.43;;;14.00;99.90;;;;;;5031963;28;20501;-74
2023/01/01 00:25:41;;;;;;;19.15;9.43;;;13.50;99.90;;;;;;5031732;28;20044;-74
2023/01/01 00:28:08;;;;;;;18.80;10.02;;;14.00;99.90;;;;;;4999579;28;20052;-74
2023/01/01 00:30:34;;;;;;;18.20;10.18;;;13.60;99.90;;;;;;5031210;28;20415;-75
2023/01/01 00:33:00;;;;;;;19.95;10.73;;;13.80;99.90;;;;;;5010607;28;20038;-75
2023/01/01 00:35:26;;;;;;;20.40;11.65;;;13.60;99.90;;;;;;5011498;28;20478;-74
2023/01/01 00:37:53;;;;;;;24.23;12.27;;;13.70;99.90;;;;;;5001627;28;20041;-74
2023/01/01 00:40:18;;;;;;;27.20;15.52;;;13.70;99.90;;;;;;5018667;28;20037;-74
2023/01/01 00:42:44;;;;;;;26.85;13.45;;;13.70;99.90;;;;;;5013527;28;20033;-74
2023/01/01 00:45:10;;;;;;;28.05;15.25;;;;;;;;;;5013609;28;20443;-75
2023/01/01 00:47:36;;;;;;;23.77;15.02;;;13.70;99.90;;;;;;5001090;28;20487;-74
2023/01/01 00:50:02;;;;;;;27.88;14.77;;;13.70;99.90;;;;;;5020168;28;20041;-75
2023/01/01 00:52:28;;;;;;;21.80;13.15;;;13.30;99.90;;;;;;5013696;28;20041;-74
2023/01/01 00:54:53;;;;;;;24.08;12.00;;;14.10;99.90;;;;;;5018458;28;20113;-75
2023/01/01 00:57:19;;;;;;;18.92;11.10;;;;;;;;;;5030608;28;20077;-74
2023/01/01 00:59:45;;;;;;;15.10;8.57;;;13.60;99.90;;;;;;4991074;28;20116;-75
2023/01/01 01:02:11;;;;;;;16.20;9.75;;;14.20;99.90;;;;;;4992191;28;20558;-74
2023/01/01 01:04:36;;;;;;;16.55;7.20;;;14.10;99.90;;;;;;4994878;28;20041;-75
2023/01/01 01:07:02;;;;;;;16.27;5.70;;;13.20;99.90;;;;;;5030602;28;20035;-74
2023/01/01 01:09:28;;;;;;;15.93;5.72;;;13.80;99.90;;;;;;4988861;28;20073;-74
2023/01/01 01:11:54;;;;;;;17.63;6.57;;;13.60;99.90;;;;;;5008183;28;20088;-74
2023/01/01 01:14:19;;;;;;;11.27;4.55;;;13.00;99.90;;;;;;5009381;28;20059;-74
2023/01/01 01:16:45;;;;;;;14.93;6.55;;;13.20;99.90;;;;;;5009897;28;20167;-75
2023/01/01 01:19:14;;;;;;;12.73;5.40;;;12.90;91.40;;;;;;5022402;28;20424;-76
2023/01/01 01:21:40;;;;;;;17.13;5.57;;;12.30;29.50;;;;;;5010112;28;20498;-76
2023/01/01 01:24:06;;;;;;;19.13;6.78;;;12.20;1.00;;;;;;4985714;28;20033;-77
2023/01/01 01:26:33;;;;;;;19.08;6.78;;;12.50;99.90;;;;;;5023845;28;20116;-77
2023/01/01 01:28:59;;;;;;;15.38;5.97;;;11.50;99.90;;;;;;4998941;28;20042;-76
2023/01/01 01:31:28;;;;;;;21.90;7.15;;;11.40;99.90;;;;;;5002755;28;20057;-73
2023/01/01 01:33:54;;;;;;;16.83;6.70;;;;;;;;;;4997161;28;20042;-74
2023/01/01 01:36:19;;;;;;;16.35;6.55;;;11.00;99.90;;;;;;5017560;28;20049;-74
2023/01/01 01:38:45;;;;;;;20.67;7.22;;;11.40;99.90;;;;;;5018914;28;20063;-74
2023/01/01 01:41:18;;;;;;;19.02;6.97;;;11.50;99.90;;;;;;5023412;28;20052;-73
2023/01/01 01:43:50;;;;;;;18.05;7.88;;;11.20;99.90;;;;;;5023565;28;20041;-72
2023/01/01 01:46:47;;;;;;;20.52;7.05;;;11.40;99.90;;;;;;5010395;28;20029;-72
2023/01/01 01:49:17;;;;;;;18.63;6.70;;;11.50;99.90;;;;;;5012754;28;20057;-72
2023/01/01 01:51:44;;;;;;;21.10;7.00;;;11.60;99.90;;;;;;5032545;28;20045;-71
2023/01/01 01:54:14;;;;;;;20.80;7.38;;;11.30;99.90;;;;;;5014386;28;20494;-71
2023/01/01 01:56:48;;;;;;;17.38;6.35;;;11.10;99.90;;;;;;5020873;28;20446;-71
2023/01/01 01:59:15;;;;;;;;;;;11.30;99.90;;;;;;5026392;28;20038;-71
2023/01/01 02:01:41;;;;;;;21.95;7.47;;;11.80;99.90;;;;;;5009039;28;19917;-70
2023/01/01 02:04:06;;;;;;;19.92;6.95;;;11.00;99.90;;;;;;5024907;28;20043;-70
2023/01/01 02:06:34;;;;;;;17.75;6.88;;;11.30;99.90;;;;;;5012005;28;20049;-70
2023/01/01 02:09:03;;;;;;;21.08;5.97;;;11.20;99.90;;;;;;5025318;28;20107;-71
2023/01/01 02:11:30;;;;;;;15.27;6.63;;;;;;;;;;5006568;28;20115;-71
2023/01/01 02:13:57;;;;;;;19.40;8.27;;;11.10;99.90;;;;;;5013654;28;20076;-71
2023/01/01 02:16:39;;;;;;;15.88;6.60;;;11.30;99.90;;;;;;5026041;28;20458;-71
2023/01/01 02:19:39;;;;;;;18.83;6.38;;;11.30;99.90;;;;;;5022510;28;20070;-71
2023/01/01 02:22:14;;;;;;;15.15;6.55;;;11.20;99.90;;;;;;4991133;28;20037;-72
2023/01/01 02:24:40;;;;;;;16.65;6.35;;;;;;;;;;5028915;28;20029;-71
2023/01/01 02:27:14;;;;;;;17.50;6.43;;;11.10;99.90;;;;;;5004299;28;20111;-71
2023/01/01 02:29:49;;;;;;;20.17;7.55;;;11.10;99.90;;;;;;5005910;28;20406;-71
2023/01/01 02:32:47;;;;;;;14.77;6.88;;;11.50;99.90;;;;;;5032598;28;20049;-71
2023/01/01 02:35:41;;;;;;;15.68;6.55;;;11.50;99.90;;;;;;5026801;28;20045;-70
2023/01/01 02:38:26;;;;;;;19.20;7.05;;;11.20;99.90;;;;;;5027987;28;20124;-71
2023/01/01 02:40:58;;;;;;;17.73;6.72;;;10.90;99.90;;;;;;5023280;28;20052;-72
2023/01/01 02:43:23;;;;;;;15.50;5.80;;;11.90;99.90;;;;;;5028806;28;20048;-71
2023/01/01 02:45:49;;;;;;;15.52;6.75;;;11.10;99.90;;;;;;5022854;28;20029;-71
2023/01/01 02:48:36;;;;;;;16.90;5.90;;;11.30;99.90;;;;;;5014508;28;20048;-71
2023/01/01 02:51:08;;;;;;;19.40;6.88;;;11.00;99.90;;;;;;5002432;28;20072;-71
2023/01/01 02:53:38;;;;;;;13.75;4.78;;;11.20;99.90;;;;;;5026738;28;20446;-72
2023/01/01 02:56:15;;;;;;;19.90;6.65;;;11.70;99.90;;;;;;5027110;28;20041;-71
2023/01/01 03:02:07;;;;;;;14.57;6.50;;;11.30;99.90;;;;;;5025571;28;20076;-71
2023/01/01 03:04:54;;;;;;;14.38;7.25;;;10.90;99.90;;;;;;5029488;28;20045;-71
2023/01/01 03:07:32;;;;;;;17.13;4.90;;;11.20;99.90;;;;;;5009536;28;20411;-71
2023/01/01 03:10:06;;;;;;;16.25;4.88;;;11.30;99.90;;;;;;5025262;28;20042;-71
2023/01/01 03:12:52;;;;;;;19.02;6.00;;;10.70;99.90;;;;;;5023287;28;20463;-71
2023/01/01 03:15:50;;;;;;;11.60;4.55;;;11.10;99.90;;;;;;5026778;28;20128;-71
2023/01/01 03:18:37;;;;;;;13.32;4.45;;;11.00;99.90;;;;;;4998430;28;20092;-72
2023/01/01 03:21:06;;;;;;;12.65;5.35;;;11.10;99.90;;;;;;5009981;28;20040;-72
2023/01/01 03:23:39;;;;;;;10.50;4.32;;;11.60;99.90;;;;;;5026892;28;20037;-72
2023/01/01 03:26:09;;;;;;;15.63;5.35;;;10.90;99.90;;;;;;4997418;28;20030;-71
2023/01/01 03:28:44;;;;;;;15.55;4.72;;;10.90;99.90;;;;;;5016921;28;20045;-71
2023/01/01 03:31:14;;;;;;;16.83;5.65;;;11.30;99.90;;;;;;5009375;28;20051;-71
2023/01/01 03:33:43;;;;;;;22.17;6.55;;;;;;;;;;5021339;28;20096;-71
2023/01/01 03:36:14;;;;;;;17.42;5.57;;;11.10;99.90;;;;;;5022009;28;20432;-71
2023/01/01 03:38:44;;;;;;;16.92;5.38;;;11.30;99.90;;;;;;5000077;28;20057;-71
2023/01/01 03:41:22;;;;;;;20.90;7.05;;;11.30;99.90;;;;;;4987299;28;20034;-71
2023/01/01 03:44:03;;;;;;;21.80;5.35;;;11.30;99.90;;;;;;4997315;28;20080;-71
2023/01/01 03:46:31;;;;;;;16.70;6.35;;;11.60;99.90;;;;;;5024057;28;20033;-71
2023/01/01 03:48:59;;;;;;;16.63;6.63;;;11.10;99.90;;;;;;5018161;28;20034;-71
2023/01/01 03:51:45;;;;;;;16.77;5.97;;;11.40;99.90;;;;;;5029107;28;20435;-71
2023/01/01 03:54:31;;;;;;;18.88;5.15;;;10.90;99.90;;;;;;4978551;28;20127;-71
2023/01/01 03:57:25;;;;;;;22.55;7.65;;;11.50;99.90;;;;;;5020105;28;20492;-72
2023/01/01 04:00:08;;;;;;;17.60;5.25;;;11.20;99.90;;;;;;5026055;28;20117;-71
2023/01/01 04:02:39;;;;;;;21.60;6.93;;;11.00;99.90;;;;;;5011024;28;20033;-71
2023/01/01 04:05:09;;;;;;;22.08;6.68;;;11.20;99.90;;;;;;5000779;28;20376;-71
2023/01/01 04:07:34;;;;;;;17.63;5.65;;;11.00;99.90;;;;;;5026165;28;20068;-71
2023/01/01 04:10:15;;;;;;;20.75;6.43;;;11.00;99.90;;;;;;5002606;28;20407;-71
2023/01/01 04:12:46;;;;;;;18.35;6.28;;;10.90;99.90;;;;;;4993283;28;20503;-71
2023/01/01 04:15:12;;;;;;;20.23;5.72;;;10.90;99.90;;;;;;5016091;28;20034;-72
2023/01/01 04:17:38;;;;;;;26.70;5.90;;;11.00;99.90;;;;;;5002597;28;20045;-70
2023/01/01 04:20:04;;;;;;;18.38;5.90;;;10.70;99.90;;;;;;5023687;28;20042;-71
2023/01/01 04:22:30;;;;;;;15.75;4.53;;;10.80;99.90;;;;;;4986035;28;20457;-71
2023/01/01 04:24:56;;;;;;;19.30;4.57;;;;;;;;;;5031360;28;20045;-71
2023/01/01 04:27:21;;;;;;;21.08;5.38;;;10.90;99.90;;;;;;5028590;28;20094;-71
2023/01/01 04:29:47;;;;;;;15.73;4.57;;;11.00;99.90;;;;;;5025068;28;20045;-71
2023/01/01 04:32:12;;;;;;;14.98;4.72;;;11.80;99.90;;;;;;4998910;28;20376;-71
2023/01/01 04:34:38;;;;;;;19.17;5.00;;;10.90;99.90;;;;;;5009364;28;20176;-71
2023/01/01 04:37:04;;;;;;;17.10;4.20;;;10.90;99.90;;;;;;5018732;28;20037;-71
2023/01/01 04:39:30;;;;;;;18.73;4.78;;;;;;;;;;5021330;28;20045;-70
2023/01/01 04:41:55;;;;;;;20.00;5.93;;;11.50;99.90;;;;;;5009024;28;20040;-70
2023/01/01 04:44:21;;;;;;;17.70;5.40;;;;;;;;;;5024972;28;20487;-70
2023/01/01 04:46:47;;;;;;;19.83;4.88;;;;;;;;;;5024819;28;20095;-70
2023/01/01 04:49:13;;;;;;;18.23;5.50;;;11.10;99.90;;;;;;5021085;28;20041;-71
2023/01/01 04:51:38;;;;;;;18.90;4.93;;;11.00;99.90;;;;;;5022729;28;20557;-71
2023/01/01 04:54:04;;;;;;;23.00;6.30;;;10.90;88.00;;;;;;5011838;28;20120;-71
2023/01/01 04:56:30;;;;;;;22.20;5.72;;;11.20;24.40;;;;;;5002919;28;20360;-71
2023/01/01 04:58:57;;;;;;;23.00;6.00;;;10.50;94.40;;;;;;5013621;28;20086;-71
2023/01/01 05:01:26;;;;;;;22.20;5.95;;;10.80;1.00;;;;;;5022431;28;20045;-71
2023/01/01 05:03:53;;;;;;;18.42;5.22;;;12.10;1.00;;;;;;5022706;28;20056;-71
2023/01/01 05:06:19;;;;;;;17.83;6.18;;;;;;;;;;5019015;28;20052;-71
2023/01/01 05:08:46;;;;;;;22.77;6.68;;;11.20;1.00;;;;;;5008598;28;20041;-70
2023/01/01 05:11:14;;;;;;;23.33;6.55;;;11.20;1.00;;;;;;5022876;28;20470;-70
2023/01/01 05:13:45;;;;;;;23.83;5.28;;;12.20;1.00;;;;;;5021842;28;20044;-71
2023/01/01 05:16:12;;;;;;;19.50;5.97;;;;;;;;;;5002351;28;20033;-71
2023/01/01 05:18:39;;;;;;;13.82;4.50;;;11.20;1.00;;;;;;5008815;28;20087;-70
2023/01/01 05:21:09;;;;;;;17.45;5.13;;;10.90;1.00;;;;;;5028447;28;20102;-71
2023/01/01 05:23:35;;;;;;;20.50;4.90;;;10.90;1.00;;;;;;5029459;28;20414;-71
2023/01/01 05:26:08;;;;;;;18.60;5.72;;;11.00;99.90;;;;;;5019385;28;20030;-70
2023/01/01 05:28:34;;;;;;;14.27;5.13;;;11.10;99.90;;;;;;5017530;28;20052;-70
2023/01/01 05:31:05;;;;;;;16.17;4.13;;;11.00;99.90;;;;;;5007528;28;20037;-70
2023/01/01 05:33:30;;;;;;;18.23;4.88;;;11.40;99.90;;;;;;5022706;28;20109;-70
2023/01/01 05:35:56;;;;;;;17.88;5.57;;;11.10;99.90;;;;;;5019904;28;20175;-71
2023/01/01 05:38:21;;;;;;;15.25;3.63;;;11.00;99.90;;;;;;5006222;28;20067;-70
2023/01/01 05:40:47;;;;;;;24.88;5.97;;;10.50;99.90;;;;;;5020789;28;20038;-70
2023/01/01 05:43:13;;;;;;;17.70;4.53;;;;;;;;;;5017261;28;20345;-71
2023/01/01 05:45:39;;;;;;;18.50;4.20;;;10.70;99.90;;;;;;5002835;28;20500;-70
2023/01/01 05:48:06;;;;;;;20.83;4.78;;;11.20;99.90;;;;;;5018029;28;20041;-71
2023/01/01 05:50:32;;;;;;;14.73;3.28;;;;;;;;;;5010071;28;20486;-70
2023/01/01 05:52:57;;;;;;;13.98;4.18;;;10.50;99.90;;;;;;5012481;28;20145;-71
2023/01/01 05:55:23;;;;;;;11.57;3.45;;;10.90;99.90;;;;;;5020555;28;20116;-71
2023/01/01 05:57:49;;;;;;;13.90;3.30;;;;;;;;;;5004642;28;20059;-70
2023/01/01 06:00:15;;;;;;;11.75;3.92;;;10.80;99.90;;;;;;5018745;28;20046;-71
2023/01/01 06:02:40;;;;;;;22.50;4.18;;;10.50;99.90;;;;;;5012650;28;20040;-71
2023/01/01 06:05:06;;;;;;;14.18;3.47;;;;;;;;;;4999696;28;20052;-71
2023/01/01 06:07:32;;;;;;;14.65;4.25;;;10.70;99.90;;;;;;5023131;28;20069;-71
2023/01/01 06:09:57;;;;;;;14.35;4.47;;;10.90;99.90;;;;;;5014444;28;20448;-71
2023/01/01 06:12:23;;;;;;;16.67;4.05;;;10.70;99.90;;;;;;5022156;28;20043;-72
2023/01/01 06:14:49;;;;;;;13.05;2.60;;;10.80;99.90;;;;;;5022946;28;20179;-72
2023/01/01 06:17:14;;;;;;;16.52;3.63;;;11.10;97.40;;;;;;5015194;28;20109;-71
2023/01/01 06:19:40;;;;;;;11.77;2.97;;;10.50;99.90;;;;;;5010675;28;20380;-71
2023/01/01 06:22:05;;;;;;;14.90;4.15;;;11.30;99.90;;;;;;5022615;28;20037;-71
2023/01/01 06:24:31;;;;;;;9.95;3.03;;;;;;;;;;5021286;28;20548;-71
2023/01/01 06:26:57;;;;;;;15.68;3.55;;;10.10;99.90;;;;;;5022339;28;20073;-71
2023/01/01 06:29:23;;;;;;;16.02;4.65;;;11.10;99.90;;;;;;5027906;28;20079;-71
2023/01/01 06:31:48;;;;;;;13.27;3.90;;;10.60;99.90;;;;;;5006417;28;20037;-71
2023/01/01 06:34:14;;;;;;;13.00;4.07;;;10.60;99.90;;;;;;5024126;28;20381;-71
2023/01/01 06:36:39;;;;;;;12.00;3.35;;;10.90;99.90;;;;;;5028969;28;20037;-72
2023/01/01 06:39:05;;;;;;;15.70;3.08;;;11.00;99.90;;;;;;4982883;28;20061;-71
2023/01/01 06:41:31;;;;;;;13.50;4.15;;;10.20;99.90;;;;;;5007865;28;20172;-72
2023/01/01 06:43:59;;;;;;;19.17;4.05;;;10.20;99.90;;;;;;5009955;28;20033;-72
2023/01/01 06:46:30;;;;;;;16.42;3.78;;;10.70;99.90;;;;;;4989895;28;20040;-71
2023/01/01 06:48:59;;;;;;;12.27;3.42;;;10.70;88.70;;;;;;5024524;28;20038;-71
2023/01/01 06:51:30;;;;;;;15.52;2.88;;;11.60;15.00;;;;;;5004782;28;20492;-71
2023/01/01 06:54:01;;;;;;;12.38;3.70;;;10.90;1.00;;;;;;5003780;28;20042;-71
2023/01/01 06:56:27;;;;;;;12.98;3.75;;;;;;;;;;5003621;28;20512;-72
2023/01/01 06:58:53;;;;;;;18.83;3.80;;;;;;;;;;5021998;28;20057;-71
2023/01/01 07:01:24;;;;;;;11.15;3.03;;;10.80;99.90;;;;;;5021154;28;20121;-71
2023/01/01 07:03:54;;;;;;;20.67;4.65;;;10.40;99.90;;;;;;5014183;28;20037;-71
2023/01/01 07:06:21;;;;;;;16.30;3.67;;;10.70;99.90;;;;;;5001056;28;20046;-72
2023/01/01 07:08:46;;;;;;;15.00;5.05;;;11.10;99.90;;;;;;5004225;28;20468;-71
2023/01/01 07:11:12;;;;;;;20.83;3.83;;;10.80;99.90;;;;;;5005165;28;20041;-72
2023/01/01 07:13:38;;;;;;;12.63;3.20;;;10.10;99.90;;;;;;5010867;28;20048;-72
2023/01/01 07:16:05;;;;;;;21.30;4.45;;;10.80;99.90;;;;;;4987083;28;20033;-71
2023/01/01 07:18:31;;;;;;;28.05;5.93;;;10.20;99.90;;;;;;5025271;28;20120;-72
2023/01/01 07:20:59;;;;;;;19.98;3.90;;;10.60;99.90;;;;;;4999649;28;20454;-72
2023/01/01 07:23:26;;;;;;;15.57;3.67;;;10.10;99.90;;;;;;5023608;28;20080;-73
2023/01/01 07:25:53;;;;;;;19.30;4.95;;;;;;;;;;5025976;28;20127;-72
2023/01/01 07:28:19;;;;;;;12.57;3.50;;;10.60;99.90;;;;;;5012796;28;20069;-72
2023/01/01 07:30:45;;;;;;;15.68;3.78;;;10.10;99.90;;;;;;5023080;28;20035;-72
2023/01/01 07:33:12;;;;;;;15.00;4.47;;;10.30;99.90;;;;;;5027464;28;20033;-71
2023/01/01 07:35:39;;;;;;;19.58;4.10;;;11.00;99.90;;;;;;5001220;28;20056;-72
2023/01/01 07:38:05;;;;;;;14.20;4.00;;;10.90;99.90;;;;;;4997398;28;20041;-72
2023/01/01 07:40:31;;;;;;;18.25;3.67;;;10.40;99.90;;;;;;5027485;28;20037;-71
2023/01/01 07:42:57;;;;;;;17.77;4.93;;;10.30;99.90;;;;;;5016121;28;20442;-72
2023/01/01 07:45:23;;;;;;;18.65;3.97;;;;;;;;;;5008132;28;20040;-72
2023/01/01 07:47:50;;;;;;;18.35;5.30;;;;;;;;;;5008767;28;20033;-72
2023/01/01 07:50:17;;;;;;;22.15;4.25;;;;;;;;;;5010306;28;20529;-72
2023/01/01 07:52:42;;;;;;;20.70;4.10;;;10.40;99.90;;;;;;5000652;28;20522;-72
2023/01/01 07:55:13;;;;;;;17.23;5.00;;;10.50;99.90;;;;;;5022483;28;20029;-72
2023/01/01 07:57:39;;;;;;;20.02;5.18;;;10.50;99.90;;;;;;4986236;28;20045;-72
2023/01/01 08:00:05;;;;;;;21.23;4.90;;;10.10;99.90;;;;;;5019654;28;20042;-73
2023/01/01 08:02:32;;;;;;;33.20;5.80;;;;;;;;;;4999666;28;20770;-73
2023/01/01 08:04:57;;;;;;;25.52;5.53;;;10.80;99.90;;;;;;5002056;28;20042;-72
2023/01/01 08:07:23;;;;;;;20.77;5.28;;;10.50;99.90;;;;;;5007963;28;20651;-73
2023/01/01 08:09:48;;;;;;;23.73;5.25;;;10.00;99.90;;;;;;5019809;28;20052;-72
2023/01/01 08:12:14;;;;;;;19.83;5.10;;;11.70;99.90;;;;;;5004333;28;20080;-72
2023/01/01 08:14:40;;;;;;;23.85;4.10;;;10.90;99.90;;;;;;5008205;28;20048;-72
2023/01/01 08:17:08;;;;;;;27.15;5.10;;;10.70;99.90;;;;;;5006801;28;20355;-71
2023/01/01 08:19:33;;;;;;;20.83;4.57;;;;;;;;;;5021060;28;20079;-72
2023/01/01 08:21:59;;;;;;;28.02;5.88;;;10.40;99.90;;;;;;5026509;28;20029;-72
2023/01/01 08:24:25;;;;;;;19.58;4.97;;;10.60;99.90;;;;;;5024373;28;20115;-72
2023/01/01 08:26:51;;;;;;;24.15;4.50;;;;;;;;;;4994927;28;20380;-72
2023/01/01 08:29:16;;;;;;;25.10;5.15;;;10.20;99.90;;;;;;5001840;28;20044;-72
2023/01/01 08:31:42;;;;;;;15.82;4.85;;;10.20;99.90;;;;;;4997176;28;20191;-72
2023/01/01 08:34:08;;;;;;;19.27;4.20;;;10.40;99.90;;;;;;5027494;28;20049;-73
2023/01/01 08:36:34;;;;;;;20.48;4.60;;;10.50;99.90;;;;;;5008930;28;20041;-72
2023/01/01 08:38:59;;;;;;;19.77;4.03;;;10.70;99.90;;;;;;5009233;28;20056;-72
2023/01/01 08:41:25;;;;;;;21.85;5.22;;;10.60;99.90;;;;;;5005350;28;20034;-72
2023/01/01 08:43:54;;;;;;;24.95;6.88;;;;;;;;;;4993790;28;20113;-71
2023/01/01 08:46:20;;;;;;;18.38;4.72;;;10.80;99.90;;;;;;5018019;28;20491;-72
2023/01/01 08:48:45;;;;;;;21.33;5.15;;;10.30;99.90;;;;;;5003460;28;20095;-72
2023/01/01 08:51:11;;;;;;;23.02;5.93;;;;;;;;;;5026260;28;20104;-72
2023/01/01 08:53:37;;;;;;;27.60;4.85;;;10.30;99.90;;;;;;5008783;28;20037;-72
2023/01/01 08:56:06;;;;;;;22.50;4.45;;;10.10;99.90;;;;;;5025761;28;20043;-72
2023/01/01 08:58:37;;;;;;;26.95;5.60;;;10.20;99.90;;;;;;4998588;28;20049;-72
2023/01/01 09:01:03;;;;;;;30.90;6.65;;;;;;;;;;5008950;28;20072;-72
2023/01/01 09:03:29;;;;;;;22.20;5.70;;;10.00;99.90;;;;;;5009800;28;20037;-72
2023/01/01 09:05:55;;;;;;;28.17;5.60;;;10.50;99.90;;;;;;5001635;28;20030;-73
2023/01/01 09:08:21;;;;;;;20.38;5.15;;;;;;;;;;5007652;28;20521;-72
2023/01/01 09:10:47;;;;;;;18.83;4.22;;;10.60;99.90;;;;;;5008178;28;20056;-72
2023/01/01 09:13:15;;;;;;;19.33;6.00;;;10.80;99.90;;;;;;5010928;28;20068;-73
2023/01/01 09:15:41;;;;;;;21.52;5.38;;;10.70;99.90;;;;;;5009153;28;20121;-72
2023/01/01 09:18:08;;;;;;;23.88;4.65;;;10.00;99.90;;;;;;4989925;28;20056;-73
2023/01/01 09:20:34;;;;;;;24.67;4.90;;;;;;;;;;5021111;28;20503;-72
2023/01/01 09:23:00;;;;;;;25.50;6.82;;;10.70;99.90;;;;;;5006469;28;20038;-73
2023/01/01 09:25:25;;;;;;;19.80;5.80;;;10.50;99.90;;;;;;5019464;28;20048;-72
2023/01/01 09:27:58;;;;;;;26.10;7.15;;;9.90;99.90;;;;;;5010147;28;20029;-73
2023/01/01 09:30:24;;;;;;;26.10;5.70;;;10.80;99.90;;;;;;5009505;28;20521;-73
2023/01/01 09:32:50;;;;;;;29.08;6.55;;;10.80;99.90;;;;;;5004890;28;20038;-72
2023/01/01 09:35:15;;;;;;;32.20;8.00;;;10.80;99.90;;;;;;5019815;28;20056;-73
2023/01/01 09:37:41;;;;;;;20.73;4.30;;;10.30;99.90;;;;;;4986601;28;20064;-73
2023/01/01 09:40:25;;;;;;;22.70;6.55;;;10.20;99.90;;;;;;5013875;28;20380;-73
2023/01/01 09:43:08;;;;;;;30.03;6.30;;;10.70;99.90;;;;;;5030302;28;20029;-73
2023/01/01 09:46:05;;;;;;;28.67;6.03;;;10.50;99.90;;;;;;5009448;28;20049;-73
2023/01/01 09:48:32;;;;;;;25.75;5.20;;;10.30;99.90;;;;;;4979138;28;20128;-73
2023/01/01 09:51:06;;;;;;;25.98;5.28;;;11.00;99.90;;;;;;5007062;28;20395;-73
2023/01/01 09:53:41;;;;;;;21.13;5.53;;;10.80;99.90;;;;;;5008356;28;20099;-73
2023/01/01 09:56:16;;;;;;;24.70;5.90;;;10.70;99.90;;;;;;5024606;28;20041;-73
2023/01/01 09:58:42;;;;;;;24.98;5.28;;;11.10;99.90;;;;;;4993637;28;20506;-73
2023/01/01 10:01:46;;;;;;;17.48;5.07;;;10.60;99.90;;;;;;5010844;28;20026;-73
2023/01/01 10:04:33;;;;;;;23.52;5.68;;;10.30;99.90;;;;;;4956664;28;20132;-73
2023/01/01 10:07:27;;;;;;;17.60;4.65;;;10.40;99.90;;;;;;5010922;28;20037;-73
2023/01/01 10:10:02;;;;;;;28.42;5.97;;;10.60;99.90;;;;;;5030183;28;20041;-73
2023/01/01 10:12:28;;;;;;;18.15;5.00;;;10.60;99.90;;;;;;5009992;28;20049;-73
2023/01/01 10:15:10;;;;;;;19.40;4.97;;;10.90;99.90;;;;;;5025269;28;20033;-73
2023/01/01 10:17:44;;;;;;;17.90;3.60;;;10.90;99.90;;;;;;5024902;28;20092;-73
2023/01/01 10:20:21;;;;;;;22.20;5.40;;;10.70;99.90;;;;;;5030802;28;20398;-72
2023/01/01 10:22:53;;;;;;;23.83;5.38;;;11.50;99.90;;;;;;5010601;28;20036;-73
2023/01/01 10:25:21;;;;;;;25.13;4.13;;;11.20;99.90;;;;;;5009278;28;20625;-72
2023/01/01 10:27:52;;;;;;;21.10;6.10;;;10.90;99.90;;;;;;5023146;28;20402;-73
2023/01/01 10:30:20;;;;;;;15.48;4.80;;;;;;;;;;4989073;28;20049;-74
2023/01/01 10:32:48;;;;;;;21.67;4.65;;;10.90;99.90;;;;;;5012183;28;20037;-73
2023/01/01 10:35:17;;;;;;;19.30;4.47;;;10.60;99.90;;;;;;5000698;28;20120;-73
2023/01/01 10:37:43;;;;;;;17.15;4.57;;;10.70;99.90;;;;;;4990980;28;20034;-73
2023/01/01 10:40:21;;;;;;;19.90;4.18;;;11.20;99.90;;;;;;5028280;28;20518;-74
2023/01/01 10:42:50;;;;;;;23.60;4.55;;;11.60;99.90;;;;;;5010599;28;20083;-74
2023/01/01 10:45:18;;;;;;;20.38;3.92;;;11.10;99.90;;;;;;5010908;28;20394;-73
2023/01/01 10:48:11;;;;;;;18.83;3.85;;;11.10;99.90;;;;;;4992390;28;20082;-74
2023/01/01 10:50:44;;;;;;;16.17;3.78;;;11.10;99.90;;;;;;4998218;28;20132;-74
2023/01/01 10:53:37;;;;;;;22.35;4.93;;;11.10;99.90;;;;;;5021940;28;20038;-74
2023/01/01 10:56:12;;;;;;;19.50;5.32;;;11.20;99.90;;;;;;5025511;28;20037;-74
2023/01/01 10:58:49;;;;;;;22.48;4.57;;;11.20;99.90;;;;;;5004899;28;20463;-74
2023/01/01 11:01:25;;;;;;;22.60;4.18;;;;;;;;;;5014706;28;20033;-74
2023/01/01 11:03:55;;;;;;;16.58;4.00;;;11.10;99.90;;;;;;5029524;28;20033;-74
2023/01/01 11:06:39;;;;;;;19.75;4.43;;;11.10;99.90;;;;;;5015846;28;20053;-74
2023/01/01 11:09:20;;;;;;;16.95;4.50;;;11.30;99.90;;;;;;5020080;28;20068;-74
2023/01/01 11:11:53;;;;;;;18.33;4.03;;;11.60;99.90;;;;;;5011165;28;20041;-74
2023/01/01 11:14:24;;;;;;;21.45;4.45;;;10.90;99.90;;;;;;5021921;28;20045;-74
2023/01/01 11:16:52;;;;;;;14.73;3.40;;;10.80;99.90;;;;;;5005130;28;20052;-74
2023/01/01 11:19:22;;;;;;;20.90;4.30;;;11.40;99.90;;;;;;5000822;28;20392;-74
2023/01/01 11:21:48;;;;;;;10.90;3.17;;;;;;;;;;4997810;28;20038;-74
2023/01/01 11:24:23;;;;;;;18.63;4.22;;;10.80;99.90;;;;;;5011652;28;20072;-74
2023/01/01 11:26:50;;;;;;;15.73;5.63;;;11.50;99.90;;;;;;4995613;28;20475;-73
2023/01/01 11:29:16;;;;;;;17.67;4.32;;;;;;;;;;5012276;28;20041;-73
2023/01/01 11:31:45;;;;;;;15.35;4.07;;;11.80;99.90;;;;;;5016594;28;20065;-74
2023/01/01 11:34:31;;;;;;;12.48;3.80;;;11.60;99.90;;;;;;4998601;28;20171;-74
2023/01/01 11:37:09;;;;;;;16.98;3.75;;;;;;;;;;5014623;28;20055;-74
2023/01/01 11:39:36;;;;;;;15.65;3.95;;;11.30;99.90;;;;;;4993871;28;20037;-74
2023/01/01 11:42:03;;;;;;;15.85;4.43;;;10.90;99.90;;;;;;5027612;28;20037;-74
2023/01/01 11:44:41;;;;;;;18.33;4.57;;;11.30;99.90;;;;;;5009636;28;20402;-74
2023/01/01 11:47:18;;;;;;;10.05;3.15;;;11.80;99.90;;;;;;5028117;28;20037;-74
2023/01/01 11:49:44;;;;;;;27.92;4.10;;;12.20;99.90;;;;;;5012515;28;20045;-74
2023/01/01 11:52:47;;;;;;;19.48;4.30;;;11.70;99.90;;;;;;5009350;28;20042;-74
2023/01/01 11:55:17;;;;;;;17.70;4.70;;;;;;;;;;5031622;28;20036;-74
2023/01/01 11:58:16;;;;;;;21.05;3.50;;;11.50;99.90;;;;;;5012832;28;20045;-74
2023/01/01 12:00:42;;;;;;;16.00;4.53;;;11.70;99.90;;;;;;5025050;28;20054;-74
2023/01/01 12:03:42;;;;;;;11.95;3.20;;;11.20;99.90;;;;;;4998897;28;20051;-74
2023/01/01 12:06:48;;;;;;;19.67;4.00;;;11.20;99.90;;;;;;5016027;28;20041;-74
2023/01/01 12:09:17;;;;;;;14.52;5.05;;;11.20;99.90;;;;;;4984013;28;20041;-74
2023/01/01 12:11:51;;;;;;;22.67;4.93;;;11.70;99.90;;;;;;5011660;28;20038;-74
2023/01/01 12:14:45;;;;;;;20.80;4.82;;;11.60;99.90;;;;;;4991897;28;20033;-74
2023/01/01 12:17:25;;;;;;;20.33;4.60;;;11.90;99.90;;;;;;5011452;28;20183;-74
2023/01/01 12:20:12;;;;;;;22.00;5.00;;;11.90;99.90;;;;;;5011987;28;20038;-73
2023/01/01 12:22:38;;;;;;;16.33;3.90;;;12.40;99.90;;;;;;5015158;28;20060;-74
2023/01/01 12:25:05;;;;;;;12.45;3.05;;;12.50;99.90;;;;;;4998338;28;20120;-74
2023/01/01 12:27:49;;;;;;;13.60;3.47;;;12.90;99.90;;;;;;5011430;28;21192;-74
2023/01/01 12:30:32;;;;;;;10.18;2.80;;;13.10;99.90;;;;;;5024551;28;20033;-74
2023/01/01 12:33:14;;;;;;;16.15;4.65;;;13.30;99.90;;;;;;5017003;28;20722;-74
2023/01/01 12:35:58;;;;;;;21.95;5.95;;;13.40;99.90;;;;;;5015829;28;20040;-74
2023/01/01 12:39:01;;;;;;;20.42;5.60;;;13.50;99.90;;;;;;5010126;28;20410;-74
2023/01/01 12:42:18;;;;;;;15.00;3.40;;;13.00;99.90;;;;;;5028143;28;20042;-74
2023/01/01 12:45:22;;;;;;;18.98;4.10;;;12.70;99.90;;;;;;4979000;28;20048;-74
2023/01/01 12:48:07;;;;;;;14.93;4.32;;;12.00;99.90;;;;;;5010159;28;20069;-73
2023/01/01 12:51:00;;;;;;;17.55;3.95;;;12.10;99.90;;;;;;5022462;28;20053;-73
2023/01/01 12:53:56;;;;;;;14.63;4.07;;;12.10;99.90;;;;;;5002427;28;20088;-74
2023/01/01 12:56:31;;;;;;;17.40;3.85;;;11.60;99.90;;;;;;5005847;28;20073;-73
2023/01/01 12:59:16;;;;;;;22.20;4.55;;;11.60;99.90;;;;;;5012159;28;20106;-73
2023/01/01 13:01:44;;;;;;;19.02;4.13;;;11.80;99.90;;;;;;5023560;28;20069;-74
2023/01/01 13:04:18;;;;;;;19.08;3.70;;;12.40;99.90;;;;;;5013030;28;20519;-74
2023/01/01 13:07:02;;;;;;;19.52;6.53;;;;;;;;;;5030221;28;20095;-73
2023/01/01 13:09:32;;;;;;;14.10;3.65;;;11.60;99.90;;;;;;5003517;28;20124;-74
2023/01/01 13:12:04;;;;;;;16.60;3.67;;;11.70;99.90;;;;;;5019692;28;20120;-73